Time;durP1;ratioP1;P1;durP2;ratioP2;P2;SDS_P1;SDS_P2;PMS_P1;PMS_P2;Temp;Humidity;BMP_temperature;BMP_pressure;BME280_temperature;BME280_humidity;BME280_pressure;Samples;Min_cycle;Max_cycle;Signal;HPM_P1;HPM_P2
2023/01/18 00:00:18;;;;;;;22.73;11.65;;;;;;;;;;5000594;28;20194;-82
2023/01/18 00:02:45;;;;;;;39.00;13.73;;;;;;;;;;4999077;28;20605;-80
2023/01/18 00:05:12;;;;;;;26.73;12.52;;;;;;;;;;4999044;28;20588;-80
2023/01/18 00:07:38;;;;;;;23.27;10.02;;;;;;;;;;5016236;28;20541;-80
2023/01/18 00:10:04;;;;;;;22.15;10.75;;;;;;;;;;5016310;28;20174;-80
2023/01/18 00:12:32;;;;;;;18.60;8.35;;;;;;;;;;5015635;28;20213;-79
2023/01/18 00:14:58;;;;;;;11.75;8.65;;;;;;;;;;5014931;28;20198;-80
2023/01/18 00:17:24;;;;;;;14.43;9.48;;;;;;;;;;5015095;28;20205;-79
2023/01/18 00:19:50;;;;;;;16.73;7.50;;;;;;;;;;5016717;28;20194;-79
2023/01/18 00:22:16;;;;;;;14.63;7.90;;;;;;;;;;5017184;28;20187;-80
2023/01/18 00:24:42;;;;;;;17.95;9.57;;;;;;;;;;5014845;28;20190;-79
2023/01/18 00:27:09;;;;;;;23.88;10.93;;;;;;;;;;5016337;28;20310;-79
2023/01/18 00:29:35;;;;;;;21.55;11.50;;;;;;;;;;4997605;28;20264;-79
2023/01/18 00:32:01;;;;;;;22.77;11.75;;;;;;;;;;5016635;28;20547;-83
2023/01/18 00:34:27;;;;;;;29.10;11.20;;;;;;;;;;4998644;28;20190;-79
2023/01/18 00:36:53;;;;;;;19.83;9.63;;;;;;;;;;4998320;28;20183;-79
2023/01/18 00:39:19;;;;;;;20.88;10.48;;;;;;;;;;5017202;28;20179;-85
2023/01/18 00:44:30;;;;;;;20.15;11.00;;;;;;;;;;5000962;28;20182;-80
2023/01/18 00:46:56;;;;;;;17.33;8.82;;;;;;;;;;5015907;28;20186;-80
2023/01/18 00:49:23;;;;;;;16.55;7.05;;;;;;;;;;4982034;28;20191;-79
2023/01/18 00:51:51;;;;;;;17.23;8.05;;;;;;;;;;5015224;28;20225;-79
2023/01/18 00:54:17;;;;;;;17.08;9.95;;;;;;;;;;5014069;28;20239;-80
2023/01/18 00:56:43;;;;;;;24.80;9.95;;;;;;;;;;5014321;28;20256;-79
2023/01/18 00:59:09;;;;;;;18.17;9.23;;;;;;;;;;5014749;28;20198;-79
2023/01/18 01:01:35;;;;;;;18.33;9.18;;;;;;;;;;5014342;28;20195;-79
2023/01/18 01:06:46;;;;;;;14.93;9.52;;;;;;;;;;5000831;28;20650;-80
2023/01/18 01:09:38;;;;;;;19.42;9.27;;;;;;;;;;5015242;28;20569;-79
2023/01/18 01:26:07;;;;;;;13.60;7.68;;;;;;;;;;5015805;28;20175;-79
2023/01/18 01:28:37;;;;;;;13.93;9.07;;;;;;;;;;5013946;28;20191;-80
2023/01/18 01:31:04;;;;;;;9.05;6.95;;;;;;;;;;5015305;28;20211;-80
2023/01/18 01:33:31;;;;;;;12.68;7.13;;;;;;;;;;5014437;28;20206;-79
2023/01/18 01:36:01;;;;;;;16.27;7.30;;;;;;;;;;5013927;28;20214;-80
2023/01/18 01:38:27;;;;;;;10.05;6.35;;;;;;;;;;4997775;28;20284;-79
2023/01/18 01:40:58;;;;;;;12.45;7.88;;;;;;;;;;5029364;28;20280;-80
2023/01/18 01:43:42;;;;;;;12.02;6.60;;;;;;;;;;5020611;28;20269;-81
2023/01/18 01:46:18;;;;;;;15.02;5.47;;;;;;;;;;5038594;28;20186;-80
2023/01/18 01:48:45;;;;;;;8.85;5.97;;;;;;;;;;5021027;28;20178;-80
2023/01/18 01:51:11;;;;;;;10.63;6.43;;;;;;;;;;5020697;28;20221;-80
2023/01/18 01:53:37;;;;;;;8.65;6.30;;;;;;;;;;5020385;28;20193;-80
2023/01/18 01:56:03;;;;;;;13.07;7.00;;;;;;;;;;5004966;28;20186;-79
2023/01/18 01:58:30;;;;;;;13.20;6.90;;;;;;;;;;5020743;28;20182;-80
2023/01/18 02:00:57;;;;;;;14.68;5.70;;;;;;;;;;5004613;28;20198;-80
2023/01/18 02:03:24;;;;;;;10.77;5.65;;;;;;;;;;5021005;28;20650;-80
2023/01/18 02:05:52;;;;;;;8.82;6.10;;;;;;;;;;5021233;28;20190;-80
2023/01/18 02:08:21;;;;;;;11.32;6.05;;;;;;;;;;5020883;28;20182;-80
2023/01/18 02:10:51;;;;;;;8.05;6.32;;;;;;;;;;5037886;28;20177;-81
2023/01/18 02:13:18;;;;;;;10.27;6.03;;;;;;;;;;5038088;28;20642;-80
2023/01/18 02:15:47;;;;;;;12.07;6.55;;;;;;;;;;5037978;28;20293;-79
2023/01/18 02:18:26;;;;;;;10.15;7.97;;;;;;;;;;5020307;28;20209;-80
2023/01/18 02:21:12;;;;;;;12.63;7.82;;;;;;;;;;5020254;28;20253;-79
2023/01/18 02:23:56;;;;;;;17.48;7.40;;;;;;;;;;5037732;28;20186;-79
2023/01/18 02:26:45;;;;;;;10.20;6.22;;;;;;;;;;5020557;28;20277;-79
2023/01/18 02:29:23;;;;;;;11.15;6.68;;;;;;;;;;5027808;28;20197;-79
2023/01/18 02:32:08;;;;;;;12.20;6.93;;;;;;;;;;5019699;28;20222;-79
2023/01/18 02:34:34;;;;;;;11.35;6.43;;;;;;;;;;5019679;28;20634;-80
2023/01/18 02:37:00;;;;;;;24.83;6.93;;;;;;;;;;5019597;28;20210;-79
2023/01/18 02:39:31;;;;;;;9.70;6.70;;;;;;;;;;5035076;28;20179;-87
2023/01/18 02:47:32;;;;;;;13.00;6.43;;;;;;;;;;5002610;28;20234;-84
2023/01/18 02:49:58;;;;;;;13.55;6.00;;;;;;;;;;5017111;28;20195;-79
2023/01/18 02:52:38;;;;;;;9.10;6.68;;;;;;;;;;5016794;28;20296;-80
2023/01/18 02:55:06;;;;;;;11.45;6.28;;;;;;;;;;5016141;28;20273;-79
2023/01/18 02:57:32;;;;;;;13.95;6.47;;;;;;;;;;4999923;28;20273;-80
2023/01/18 02:59:59;;;;;;;15.02;8.55;;;;;;;;;;5017576;28;20182;-80
2023/01/18 03:02:26;;;;;;;13.52;6.90;;;;;;;;;;5015999;28;20666;-80
2023/01/18 03:04:55;;;;;;;8.07;6.50;;;;;;;;;;5016894;28;20175;-79
2023/01/18 03:07:26;;;;;;;9.85;5.93;;;;;;;;;;5017116;28;20183;-80
2023/01/18 03:09:53;;;;;;;15.23;7.10;;;;;;;;;;5017149;28;20313;-79
2023/01/18 03:12:25;;;;;;;10.90;6.65;;;;;;;;;;4999514;28;20211;-79
2023/01/18 03:14:54;;;;;;;13.63;7.68;;;;;;;;;;4999409;28;20195;-80
2023/01/18 03:17:35;;;;;;;17.50;7.55;;;;;;;;;;5017204;28;20179;-79
2023/01/18 03:20:02;;;;;;;14.02;8.00;;;;;;;;;;5015560;28;20200;-80
2023/01/18 03:25:17;;;;;;;12.25;8.10;;;;;;;;;;5016777;28;20213;-79
2023/01/18 03:36:01;;;;;;;9.88;6.93;;;;;;;;;;5017530;28;20177;-79
2023/01/18 03:38:28;;;;;;;11.70;8.10;;;;;;;;;;5015875;28;20222;-79
2023/01/18 03:40:54;;;;;;;17.00;8.45;;;;;;;;;;5030921;28;20232;-79
2023/01/18 03:43:22;;;;;;;15.73;8.60;;;;;;;;;;5035183;28;20200;-79
2023/01/18 03:45:49;;;;;;;12.35;7.90;;;;;;;;;;5036343;28;20178;-79
2023/01/18 03:48:15;;;;;;;16.63;8.07;;;;;;;;;;5036537;28;20192;-79
2023/01/18 03:50:50;;;;;;;14.82;8.07;;;;;;;;;;5036494;28;20198;-78
2023/01/18 03:53:25;;;;;;;18.25;9.40;;;;;;;;;;5036513;28;20188;-79
2023/01/18 03:56:01;;;;;;;15.27;9.25;;;;;;;;;;5034307;28;20197;-79
2023/01/18 03:58:32;;;;;;;18.25;8.07;;;;;;;;;;5036218;28;20527;-79
2023/01/18 04:00:58;;;;;;;14.23;9.63;;;;;;;;;;5035176;28;20193;-79
2023/01/18 04:03:24;;;;;;;14.98;8.90;;;;;;;;;;5034804;28;20191;-79
2023/01/18 04:05:50;;;;;;;16.58;10.50;;;;;;;;;;5018870;28;20253;-79
2023/01/18 04:08:20;;;;;;;12.35;9.18;;;;;;;;;;5036242;28;20186;-79
2023/01/18 04:10:46;;;;;;;17.20;9.90;;;;;;;;;;5034711;28;20182;-79
2023/01/18 04:13:12;;;;;;;15.73;8.93;;;;;;;;;;5034993;28;20263;-79
2023/01/18 04:15:38;;;;;;;20.05;9.20;;;;;;;;;;5035776;28;20181;-79
2023/01/18 04:18:05;;;;;;;14.27;9.52;;;;;;;;;;5034695;28;20618;-79
2023/01/18 04:20:31;;;;;;;13.73;9.05;;;;;;;;;;5001622;28;20203;-79
2023/01/18 04:22:57;;;;;;;13.55;9.73;;;;;;;;;;5034553;28;20220;-79
2023/01/18 04:25:23;;;;;;;17.40;9.15;;;;;;;;;;5034769;28;20183;-79
2023/01/18 04:27:49;;;;;;;16.17;10.00;;;;;;;;;;5001677;28;20200;-79
2023/01/18 04:30:15;;;;;;;12.50;8.43;;;;;;;;;;5018247;28;20341;-79
2023/01/18 04:32:44;;;;;;;15.98;9.15;;;;;;;;;;5035610;28;20214;-79
2023/01/18 04:35:10;;;;;;;19.98;10.23;;;;;;;;;;5002580;28;20199;-79
2023/01/18 04:37:37;;;;;;;19.40;9.68;;;;;;;;;;5017753;28;20588;-79
2023/01/18 04:40:03;;;;;;;15.65;10.45;;;;;;;;;;5017959;28;20324;-79
2023/01/18 04:42:29;;;;;;;18.73;9.85;;;;;;;;;;5035176;28;20224;-79
2023/01/18 04:44:55;;;;;;;16.45;10.52;;;;;;;;;;5033886;28;20193;-79
2023/01/18 04:47:21;;;;;;;19.33;9.25;;;;;;;;;;5035707;28;20529;-79
2023/01/18 04:49:47;;;;;;;21.20;9.90;;;;;;;;;;5035222;28;20313;-81
2023/01/18 04:52:13;;;;;;;29.05;9.68;;;;;;;;;;5018003;28;20206;-79
2023/01/18 04:54:39;;;;;;;13.50;9.85;;;;;;;;;;5033884;28;20186;-79
2023/01/18 04:57:05;;;;;;;13.95;9.60;;;;;;;;;;5034918;28;20190;-79
2023/01/18 04:59:31;;;;;;;13.93;9.68;;;;;;;;;;5034046;28;20235;-80
2023/01/18 05:01:57;;;;;;;19.75;10.65;;;;;;;;;;5017865;28;20186;-79
2023/01/18 05:04:23;;;;;;;18.85;10.45;;;;;;;;;;5017851;28;20207;-80
2023/01/18 05:06:49;;;;;;;16.15;10.00;;;;;;;;;;5018318;28;20195;-79
2023/01/18 05:09:16;;;;;;;17.55;11.50;;;;;;;;;;5018179;28;20178;-78
2023/01/18 05:11:42;;;;;;;15.43;10.77;;;;;;;;;;5017207;28;20266;-80
2023/01/18 05:14:09;;;;;;;21.02;12.45;;;;;;;;;;5035403;28;20248;-80
2023/01/18 05:16:35;;;;;;;19.63;11.65;;;;;;;;;;5019685;28;20193;-80
2023/01/18 05:19:01;;;;;;;18.27;10.63;;;;;;;;;;5021310;28;20193;-80
2023/01/18 05:21:27;;;;;;;19.30;11.90;;;;;;;;;;5038801;28;20190;-80
2023/01/18 05:23:53;;;;;;;28.30;11.52;;;;;;;;;;5021182;28;20185;-81
2023/01/18 05:26:21;;;;;;;17.35;10.90;;;;;;;;;;5038664;28;20182;-80
2023/01/18 05:28:48;;;;;;;19.55;11.38;;;;;;;;;;5020719;28;20623;-80
2023/01/18 05:31:15;;;;;;;16.90;11.60;;;;;;;;;;5021647;28;20209;-80
2023/01/18 05:33:41;;;;;;;18.23;11.75;;;;;;;;;;5038490;28;20681;-80
2023/01/18 05:36:07;;;;;;;15.68;11.15;;;;;;;;;;5038508;28;20186;-80
2023/01/18 05:38:33;;;;;;;16.83;11.20;;;;;;;;;;5021109;28;20185;-79
2023/01/18 05:40:59;;;;;;;16.65;11.48;;;;;;;;;;5020105;28;20235;-80
2023/01/18 05:43:26;;;;;;;19.42;11.57;;;;;;;;;;5038533;28;20186;-80
2023/01/18 05:45:53;;;;;;;21.08;12.23;;;;;;;;;;5038502;28;20516;-79
2023/01/18 05:48:19;;;;;;;35.20;16.02;;;;;;;;;;5020903;28;20209;-80
2023/01/18 05:50:45;;;;;;;34.75;16.63;;;;;;;;;;5021607;28;20195;-80
2023/01/18 05:53:13;;;;;;;32.60;16.00;;;;;;;;;;5039552;28;20280;-79
2023/01/18 05:55:39;;;;;;;27.75;15.07;;;;;;;;;;5020491;28;20225;-82
2023/01/18 05:58:05;;;;;;;20.73;13.80;;;;;;;;;;5020927;28;20186;-79
2023/01/18 06:00:31;;;;;;;18.08;13.20;;;;;;;;;;5021065;28;20188;-80
2023/01/18 06:02:57;;;;;;;15.75;11.77;;;;;;;;;;5038242;28;20247;-80
2023/01/18 06:05:24;;;;;;;26.38;11.93;;;;;;;;;;5020517;28;20187;-80
2023/01/18 06:07:50;;;;;;;30.73;13.30;;;;;;;;;;5038449;28;20204;-80
2023/01/18 06:10:17;;;;;;;18.77;13.93;;;;;;;;;;5038462;28;20182;-80
2023/01/18 06:12:43;;;;;;;23.15;13.70;;;;;;;;;;5038006;28;20242;-80
2023/01/18 06:15:10;;;;;;;19.73;11.35;;;;;;;;;;5020742;28;20188;-79
2023/01/18 06:17:36;;;;;;;17.27;10.55;;;;;;;;;;5038169;28;20193;-79
2023/01/18 06:20:03;;;;;;;17.35;11.75;;;;;;;;;;5037961;28;20207;-80
2023/01/18 06:22:29;;;;;;;18.65;11.30;;;;;;;;;;5020844;28;20217;-80
2023/01/18 06:24:55;;;;;;;21.90;11.48;;;;;;;;;;5037880;28;20559;-81
2023/01/18 06:27:21;;;;;;;15.15;10.68;;;;;;;;;;5038202;28;20186;-81
2023/01/18 06:29:47;;;;;;;16.15;10.30;;;;;;;;;;5020605;28;20226;-79
2023/01/18 06:32:13;;;;;;;23.15;11.38;;;;;;;;;;5038388;28;20542;-80
2023/01/18 06:34:39;;;;;;;21.00;11.73;;;;;;;;;;5019976;28;20607;-82
2023/01/18 06:37:06;;;;;;;21.20;11.77;;;;;;;;;;5019873;28;20236;-80
2023/01/18 06:39:32;;;;;;;31.33;13.45;;;;;;;;;;5037465;28;20864;-80
2023/01/18 06:41:58;;;;;;;30.65;12.57;;;;;;;;;;5019940;28;20192;-80
2023/01/18 06:44:24;;;;;;;23.73;11.68;;;;;;;;;;5038460;28;20212;-79
2023/01/18 06:46:50;;;;;;;21.80;12.70;;;;;;;;;;5020215;28;20186;-80
2023/01/18 06:49:16;;;;;;;21.05;12.25;;;;;;;;;;5019496;28;20190;-80
2023/01/18 06:51:42;;;;;;;21.38;12.15;;;;;;;;;;5037996;28;20252;-80
2023/01/18 06:54:09;;;;;;;16.95;10.93;;;;;;;;;;5020000;28;20201;-80
2023/01/18 06:56:35;;;;;;;24.77;13.90;;;;;;;;;;5003789;28;20211;-80
2023/01/18 06:59:01;;;;;;;26.77;12.35;;;;;;;;;;5037235;28;20273;-80
2023/01/18 07:01:27;;;;;;;23.35;12.30;;;;;;;;;;5019943;28;20199;-80
2023/01/18 07:03:53;;;;;;;18.65;11.95;;;;;;;;;;5037099;28;20182;-80
2023/01/18 07:06:19;;;;;;;25.92;12.57;;;;;;;;;;5019595;28;20194;-82
2023/01/18 07:08:46;;;;;;;19.77;11.77;;;;;;;;;;5037570;28;20288;-80
2023/01/18 07:11:13;;;;;;;23.70;12.20;;;;;;;;;;5020169;28;20263;-80
2023/01/18 07:13:39;;;;;;;21.77;11.73;;;;;;;;;;5037082;28;20243;-80
2023/01/18 07:16:05;;;;;;;19.45;12.00;;;;;;;;;;5037578;28;20191;-80
2023/01/18 07:18:31;;;;;;;20.92;12.52;;;;;;;;;;5037439;28;20510;-80
2023/01/18 07:21:00;;;;;;;21.45;13.70;;;;;;;;;;5037354;28;20192;-83
2023/01/18 07:23:27;;;;;;;18.85;12.02;;;;;;;;;;5019355;28;20509;-78
2023/01/18 07:26:16;;;;;;;18.33;12.10;;;;;;;;;;5037357;28;20176;-80
2023/01/18 07:28:43;;;;;;;15.63;10.73;;;;;;;;;;5018872;28;20176;-80
2023/01/18 07:31:09;;;;;;;18.52;12.70;;;;;;;;;;5036526;28;20220;-81
2023/01/18 07:33:36;;;;;;;26.23;13.52;;;;;;;;;;5019807;28;20597;-81
2023/01/18 07:36:04;;;;;;;18.83;10.88;;;;;;;;;;5019016;28;20201;-80
2023/01/18 07:38:30;;;;;;;19.95;12.32;;;;;;;;;;5018533;28;20641;-81
2023/01/18 07:40:57;;;;;;;22.88;13.57;;;;;;;;;;5018679;28;20236;-80
2023/01/18 07:43:23;;;;;;;21.40;11.80;;;;;;;;;;5019532;28;20186;-80
2023/01/18 07:45:53;;;;;;;17.30;12.23;;;;;;;;;;5022011;28;20270;-78
2023/01/18 07:48:20;;;;;;;16.75;11.43;;;;;;;;;;5019341;28;20186;-80
2023/01/18 07:50:56;;;;;;;22.35;12.45;;;;;;;;;;5018397;28;20189;-81
2023/01/18 07:53:23;;;;;;;19.08;11.27;;;;;;;;;;5019436;28;20200;-80
2023/01/18 07:55:49;;;;;;;18.63;9.45;;;;;;;;;;5036483;28;20188;-80
2023/01/18 07:58:16;;;;;;;17.45;12.00;;;;;;;;;;5003103;28;20185;-79
2023/01/18 08:00:42;;;;;;;19.45;10.75;;;;;;;;;;5036648;28;20263;-79
2023/01/18 08:03:11;;;;;;;25.05;11.45;;;;;;;;;;5018085;28;20243;-80
2023/01/18 08:05:37;;;;;;;18.20;11.35;;;;;;;;;;5018564;28;20188;-81
2023/01/18 08:08:03;;;;;;;23.48;11.60;;;;;;;;;;5035692;28;20231;-80
2023/01/18 08:10:29;;;;;;;26.52;12.10;;;;;;;;;;5018456;28;20189;-80
2023/01/18 08:12:56;;;;;;;20.80;12.20;;;;;;;;;;5035814;28;20214;-80
2023/01/18 08:15:22;;;;;;;18.67;12.10;;;;;;;;;;5018857;28;20179;-80
2023/01/18 08:17:50;;;;;;;18.42;10.60;;;;;;;;;;5001927;28;20516;-81
2023/01/18 08:20:16;;;;;;;18.83;11.80;;;;;;;;;;5018697;28;20706;-81
2023/01/18 08:22:42;;;;;;;19.95;11.65;;;;;;;;;;5019681;28;20199;-80
2023/01/18 08:25:08;;;;;;;18.05;11.57;;;;;;;;;;5020790;28;20185;-79
2023/01/18 08:27:34;;;;;;;19.95;11.82;;;;;;;;;;5019271;28;20281;-80
2023/01/18 08:30:00;;;;;;;25.63;11.57;;;;;;;;;;5003365;28;20194;-79
2023/01/18 08:32:26;;;;;;;18.92;12.68;;;;;;;;;;5018844;28;20217;-80
2023/01/18 08:34:52;;;;;;;20.30;11.80;;;;;;;;;;5035756;28;20188;-79
2023/01/18 08:37:18;;;;;;;19.98;10.15;;;;;;;;;;5017568;28;20594;-80
2023/01/18 08:39:44;;;;;;;20.10;11.43;;;;;;;;;;5035640;28;20312;-80
2023/01/18 08:42:11;;;;;;;22.33;13.90;;;;;;;;;;5001547;28;20208;-79
2023/01/18 08:44:37;;;;;;;22.77;12.05;;;;;;;;;;5018224;28;20495;-78
2023/01/18 08:47:03;;;;;;;26.25;12.75;;;;;;;;;;5036368;28;20182;-78
2023/01/18 08:49:31;;;;;;;27.50;13.95;;;;;;;;;;5001890;28;20188;-79
2023/01/18 08:51:57;;;;;;;18.92;13.68;;;;;;;;;;5034881;28;20606;-79
2023/01/18 08:54:23;;;;;;;25.02;16.45;;;;;;;;;;5017758;28;20303;-78
2023/01/18 08:56:50;;;;;;;25.13;17.08;;;;;;;;;;5017794;28;20193;-81
2023/01/18 08:59:18;;;;;;;32.30;15.95;;;;;;;;;;5035896;28;20201;-78
2023/01/18 09:01:44;;;;;;;30.30;14.27;;;;;;;;;;5035392;28;20249;-78
2023/01/18 09:04:10;;;;;;;25.48;14.73;;;;;;;;;;5035573;28;20174;-78
2023/01/18 09:06:36;;;;;;;25.05;14.70;;;;;;;;;;5035892;28;20175;-78
2023/01/18 09:09:04;;;;;;;27.80;15.25;;;;;;;;;;5035250;28;20237;-78
2023/01/18 09:11:30;;;;;;;22.58;14.57;;;;;;;;;;5018414;28;20220;-78
2023/01/18 09:13:57;;;;;;;27.77;15.98;;;;;;;;;;5017636;28;20178;-78
2023/01/18 09:16:24;;;;;;;23.98;14.90;;;;;;;;;;5035566;28;20182;-79
2023/01/18 09:18:50;;;;;;;30.40;15.43;;;;;;;;;;5036327;28;20363;-84
2023/01/18 09:21:16;;;;;;;33.10;16.05;;;;;;;;;;5001556;28;20546;-79
2023/01/18 09:23:44;;;;;;;26.58;15.77;;;;;;;;;;5018179;28;20199;-79
2023/01/18 09:26:13;;;;;;;31.20;15.02;;;;;;;;;;5017881;28;20594;-78
2023/01/18 09:28:39;;;;;;;27.88;15.20;;;;;;;;;;5017660;28;20186;-79
2023/01/18 09:31:08;;;;;;;28.95;16.67;;;;;;;;;;5035361;28;20533;-77
2023/01/18 09:33:34;;;;;;;22.13;14.02;;;;;;;;;;5017695;28;20186;-78
2023/01/18 09:36:06;;;;;;;26.08;14.25;;;;;;;;;;5035156;28;20594;-78
2023/01/18 09:38:32;;;;;;;24.73;14.68;;;;;;;;;;5017644;28;20183;-78
2023/01/18 09:40:59;;;;;;;23.45;13.55;;;;;;;;;;5017284;28;20686;-79
2023/01/18 09:43:25;;;;;;;23.33;15.48;;;;;;;;;;5018255;28;20276;-78
2023/01/18 09:45:52;;;;;;;23.17;15.15;;;;;;;;;;5017859;28;20201;-81
2023/01/18 09:48:44;;;;;;;24.65;16.05;;;;;;;;;;5002066;28;20190;-78
2023/01/18 09:51:22;;;;;;;34.85;14.88;;;;;;;;;;4996119;28;20203;-81
2023/01/18 09:53:48;;;;;;;22.15;15.77;;;;;;;;;;5016364;28;20187;-78
2023/01/18 09:56:26;;;;;;;24.15;14.93;;;;;;;;;;5015440;28;20183;-78
2023/01/18 09:58:53;;;;;;;32.40;15.75;;;;;;;;;;5016319;28;20183;-83
2023/01/18 10:01:21;;;;;;;23.40;13.95;;;;;;;;;;4998194;28;20664;-78
2023/01/18 10:04:07;;;;;;;28.83;16.15;;;;;;;;;;5002219;28;20191;-78
2023/01/18 10:06:42;;;;;;;25.30;15.32;;;;;;;;;;5019698;28;20179;-78
2023/01/18 10:09:17;;;;;;;25.92;15.60;;;;;;;;;;5019345;28;20183;-78
2023/01/18 10:11:47;;;;;;;27.40;14.75;;;;;;;;;;5019659;28;20211;-78
2023/01/18 10:14:17;;;;;;;26.80;14.85;;;;;;;;;;5001731;28;20177;-78
2023/01/18 10:16:43;;;;;;;24.92;15.95;;;;;;;;;;5002217;28;20194;-78
2023/01/18 10:19:13;;;;;;;18.33;13.95;;;;;;;;;;5019237;28;20177;-80
2023/01/18 10:21:54;;;;;;;26.90;14.13;;;;;;;;;;5007542;28;20197;-78
2023/01/18 10:24:29;;;;;;;20.85;14.65;;;;;;;;;;5038953;28;20619;-77
2023/01/18 10:27:03;;;;;;;22.95;14.05;;;;;;;;;;5038808;28;20186;-79
2023/01/18 10:29:37;;;;;;;24.13;14.25;;;;;;;;;;5019646;28;20181;-77
2023/01/18 10:32:08;;;;;;;25.83;14.27;;;;;;;;;;5019192;28;20546;-77
2023/01/18 10:34:35;;;;;;;22.30;14.88;;;;;;;;;;5019283;28;20176;-77
2023/01/18 10:37:32;;;;;;;22.83;16.30;;;;;;;;;;5019045;28;20186;-78
2023/01/18 10:40:02;;;;;;;23.90;13.90;;;;;;;;;;4998658;28;20836;-77
2023/01/18 10:42:28;;;;;;;23.80;14.23;;;;;;;;;;5001160;28;20545;-77
2023/01/18 10:44:54;;;;;;;19.50;13.65;;;;;;;;;;5000394;28;20190;-77
2023/01/18 10:47:20;;;;;;;20.65;13.82;;;;;;;;;;5017954;28;20233;-77
2023/01/18 10:49:49;;;;;;;20.48;13.45;;;;;;;;;;5001407;28;20182;-77
2023/01/18 10:52:33;;;;;;;21.70;14.68;;;;;;;;;;5000946;28;20308;-79
2023/01/18 10:55:01;;;;;;;20.45;13.27;;;;;;;;;;5001066;28;20185;-77
2023/01/18 10:57:31;;;;;;;20.80;13.00;;;;;;;;;;5018530;28;20186;-77
2023/01/18 10:59:58;;;;;;;18.73;12.15;;;;;;;;;;5000635;28;20278;-79
2023/01/18 11:02:26;;;;;;;19.45;12.95;;;;;;;;;;5018747;28;20274;-81
2023/01/18 11:05:05;;;;;;;21.95;12.80;;;;;;;;;;5018598;28;20210;-77
2023/01/18 11:07:31;;;;;;;19.23;13.02;;;;;;;;;;5018989;28;20171;-77
2023/01/18 11:10:01;;;;;;;20.77;12.57;;;;;;;;;;5018792;28;20191;-82
2023/01/18 11:12:37;;;;;;;21.13;13.07;;;;;;;;;;5007545;28;20223;-78
2023/01/18 11:15:15;;;;;;;15.15;10.73;;;;;;;;;;5028769;28;20170;-77
2023/01/18 11:17:43;;;;;;;22.20;11.75;;;;;;;;;;5037216;28;20178;-77
2023/01/18 11:20:22;;;;;;;18.45;11.38;;;;;;;;;;5018848;28;20197;-77
2023/01/18 11:22:55;;;;;;;15.75;10.82;;;;;;;;;;5037357;28;20187;-77
2023/01/18 11:25:21;;;;;;;20.30;12.98;;;;;;;;;;5019441;28;20200;-77
2023/01/18 11:27:48;;;;;;;18.05;10.57;;;;;;;;;;5037290;28;20269;-77
2023/01/18 11:30:22;;;;;;;14.45;10.48;;;;;;;;;;5002688;28;20197;-77
2023/01/18 11:32:48;;;;;;;17.08;10.55;;;;;;;;;;5036312;28;20206;-77
2023/01/18 11:35:21;;;;;;;12.48;9.15;;;;;;;;;;5036475;28;20194;-77
2023/01/18 11:37:47;;;;;;;14.82;9.55;;;;;;;;;;5018740;28;20181;-79
2023/01/18 11:40:25;;;;;;;11.85;9.73;;;;;;;;;;5018599;28;20623;-77
2023/01/18 11:42:56;;;;;;;11.80;9.15;;;;;;;;;;5019535;28;20273;-78
2023/01/18 11:45:39;;;;;;;12.68;9.70;;;;;;;;;;5018776;28;20261;-77
2023/01/18 11:48:28;;;;;;;13.55;9.43;;;;;;;;;;4998748;28;20206;-78
2023/01/18 11:51:06;;;;;;;15.98;9.90;;;;;;;;;;5016798;28;20183;-77
2023/01/18 11:53:53;;;;;;;17.65;11.15;;;;;;;;;;4999438;28;20218;-77
2023/01/18 11:56:38;;;;;;;15.65;10.40;;;;;;;;;;5017020;28;20936;-78
2023/01/18 11:59:12;;;;;;;15.38;8.15;;;;;;;;;;4999541;28;20182;-79
2023/01/18 12:02:04;;;;;;;11.55;7.32;;;;;;;;;;5016872;28;20190;-77
2023/01/18 12:04:45;;;;;;;10.43;7.80;;;;;;;;;;5013094;28;20195;-78
2023/01/18 12:07:20;;;;;;;12.63;7.57;;;;;;;;;;4998877;28;20670;-78
2023/01/18 12:09:51;;;;;;;12.55;7.05;;;;;;;;;;5017107;28;20178;-78
2023/01/18 12:12:23;;;;;;;8.98;6.65;;;;;;;;;;5016063;28;20202;-78
2023/01/18 12:15:03;;;;;;;11.27;5.90;;;;;;;;;;4998405;28;20277;-77
2023/01/18 12:17:35;;;;;;;13.27;6.78;;;;;;;;;;5016040;28;20659;-78
2023/01/18 12:20:24;;;;;;;8.02;5.72;;;;;;;;;;4998919;28;20288;-80
2023/01/18 12:23:01;;;;;;;7.78;5.32;;;;;;;;;;5016326;28;20269;-77
2023/01/18 12:25:34;;;;;;;12.20;5.45;;;;;;;;;;4998696;28;20188;-77
2023/01/18 12:28:09;;;;;;;8.05;5.63;;;;;;;;;;4998823;28;20191;-77
2023/01/18 12:30:44;;;;;;;10.82;6.55;;;;;;;;;;5015819;28;20177;-77
2023/01/18 12:33:22;;;;;;;9.25;6.15;;;;;;;;;;5016523;28;20202;-77
2023/01/18 12:35:52;;;;;;;12.70;6.78;;;;;;;;;;4998854;28;20750;-78
2023/01/18 12:38:22;;;;;;;8.95;6.05;;;;;;;;;;5016318;28;20186;-78
2023/01/18 12:40:56;;;;;;;6.75;5.10;;;;;;;;;;4998959;28;20727;-78
2023/01/18 12:43:29;;;;;;;9.80;6.00;;;;;;;;;;5016218;28;20177;-78
2023/01/18 12:45:58;;;;;;;9.25;5.38;;;;;;;;;;5016596;28;20172;-77
2023/01/18 12:48:30;;;;;;;8.50;5.95;;;;;;;;;;4998774;28;20275;-78
2023/01/18 12:50:57;;;;;;;13.73;5.40;;;;;;;;;;5016501;28;20693;-78
2023/01/18 12:53:34;;;;;;;9.25;5.50;;;;;;;;;;4998310;28;20228;-77
2023/01/18 12:56:03;;;;;;;8.27;5.30;;;;;;;;;;5016523;28;20168;-78
2023/01/18 12:58:29;;;;;;;8.15;5.47;;;;;;;;;;4998964;28;20557;-78
2023/01/18 13:00:59;;;;;;;12.27;5.87;;;;;;;;;;4998997;28;20186;-78
2023/01/18 13:03:29;;;;;;;10.30;6.25;;;;;;;;;;5015429;28;20406;-78
2023/01/18 13:05:57;;;;;;;7.95;5.72;;;;;;;;;;4998319;28;20175;-78
2023/01/18 13:08:37;;;;;;;11.35;5.78;;;;;;;;;;5015576;28;20241;-77
2023/01/18 13:11:08;;;;;;;10.38;5.53;;;;;;;;;;5017284;28;20194;-80
2023/01/18 13:13:35;;;;;;;13.15;5.45;;;;;;;;;;5036032;28;20193;-78
2023/01/18 13:16:15;;;;;;;8.02;5.28;;;;;;;;;;5018313;28;20187;-77
2023/01/18 13:18:59;;;;;;;7.45;4.90;;;;;;;;;;5035580;28;20181;-78
2023/01/18 13:21:28;;;;;;;8.68;5.63;;;;;;;;;;5017869;28;20204;-77
2023/01/18 13:24:08;;;;;;;6.70;4.90;;;;;;;;;;5035576;28;20182;-77
2023/01/18 13:26:35;;;;;;;8.30;5.00;;;;;;;;;;5034252;28;20177;-78
2023/01/18 13:29:13;;;;;;;19.05;5.10;;;;;;;;;;5016799;28;20527;-78
2023/01/18 13:31:39;;;;;;;8.23;5.22;;;;;;;;;;5034995;28;20202;-79
2023/01/18 13:34:18;;;;;;;8.68;5.15;;;;;;;;;;5035264;28;20183;-81
2023/01/18 13:36:45;;;;;;;10.57;5.53;;;;;;;;;;5018193;28;20178;-77
2023/01/18 13:39:14;;;;;;;8.38;5.50;;;;;;;;;;5020582;28;20665;-78
2023/01/18 13:42:00;;;;;;;7.97;4.95;;;;;;;;;;5021046;28;20209;-77
2023/01/18 13:44:31;;;;;;;9.15;4.75;;;;;;;;;;5020404;28;20184;-77
2023/01/18 13:46:59;;;;;;;11.52;5.55;;;;;;;;;;5039099;28;20581;-77
2023/01/18 13:49:36;;;;;;;8.50;5.20;;;;;;;;;;5021147;28;20209;-77
2023/01/18 13:52:04;;;;;;;10.05;5.10;;;;;;;;;;5039175;28;20285;-78
2023/01/18 13:54:29;;;;;;;7.63;4.53;;;;;;;;;;5004383;28;20189;-79
2023/01/18 13:57:03;;;;;;;7.53;5.00;;;;;;;;;;5015166;28;20193;-81
2023/01/18 13:59:32;;;;;;;7.38;4.35;;;;;;;;;;5017184;28;20439;-78
2023/01/18 14:02:17;;;;;;;10.73;4.68;;;;;;;;;;5034154;28;20228;-79
2023/01/18 14:04:43;;;;;;;8.05;5.00;;;;;;;;;;5035064;28;20193;-81
2023/01/18 14:07:18;;;;;;;9.00;5.55;;;;;;;;;;5036176;28;20174;-77
2023/01/18 14:09:46;;;;;;;5.57;4.30;;;;;;;;;;5038983;28;20219;-77
2023/01/18 14:12:13;;;;;;;8.45;5.10;;;;;;;;;;5020425;28;20793;-77
2023/01/18 14:14:57;;;;;;;12.68;5.38;;;;;;;;;;5038904;28;20194;-77
2023/01/18 14:17:23;;;;;;;8.70;5.43;;;;;;;;;;5020155;28;20186;-78
2023/01/18 14:19:58;;;;;;;10.50;5.22;;;;;;;;;;5004445;28;20201;-78
2023/01/18 14:22:24;;;;;;;9.32;5.97;;;;;;;;;;5020945;28;20197;-78
2023/01/18 14:24:57;;;;;;;9.73;4.77;;;;;;;;;;5021261;28;20183;-78
2023/01/18 14:27:24;;;;;;;7.20;5.40;;;;;;;;;;5038314;28;20390;-78
2023/01/18 14:29:54;;;;;;;8.18;6.20;;;;;;;;;;5038987;28;20185;-78
2023/01/18 14:32:26;;;;;;;7.55;5.25;;;;;;;;;;5020162;28;20225;-78
2023/01/18 14:34:59;;;;;;;13.32;5.63;;;;;;;;;;5020424;28;20192;-79
2023/01/18 14:37:27;;;;;;;12.50;5.38;;;;;;;;;;5038002;28;20264;-78
2023/01/18 14:40:04;;;;;;;8.38;6.57;;;;;;;;;;5020916;28;20313;-78
2023/01/18 14:42:33;;;;;;;11.95;6.05;;;;;;;;;;5037697;28;20549;-78
2023/01/18 14:45:00;;;;;;;8.20;5.35;;;;;;;;;;5020193;28;20202;-77
2023/01/18 14:47:28;;;;;;;9.43;6.07;;;;;;;;;;5038671;28;20186;-78
2023/01/18 14:49:54;;;;;;;7.30;6.13;;;;;;;;;;5019124;28;20285;-78
2023/01/18 14:52:22;;;;;;;7.82;5.90;;;;;;;;;;5019748;28;20222;-78
2023/01/18 14:54:52;;;;;;;10.15;5.45;;;;;;;;;;5038126;28;20182;-78
2023/01/18 14:57:18;;;;;;;9.38;5.40;;;;;;;;;;5037439;28;20314;-79
2023/01/18 14:59:55;;;;;;;13.87;7.90;;;;;;;;;;5037953;28;20654;-78
2023/01/18 15:02:27;;;;;;;10.25;7.03;;;;;;;;;;5019476;28;20412;-78
2023/01/18 15:05:13;;;;;;;7.88;5.65;;;;;;;;;;5020650;28;20225;-78
2023/01/18 15:07:40;;;;;;;6.22;5.38;;;;;;;;;;5037436;28;20234;-78
2023/01/18 15:10:07;;;;;;;6.95;5.90;;;;;;;;;;5019973;28;20189;-80
2023/01/18 15:12:33;;;;;;;8.70;5.20;;;;;;;;;;5019421;28;20229;-78
2023/01/18 15:15:03;;;;;;;10.80;6.00;;;;;;;;;;5003072;28;20277;-78